sensor_id;sensor_type;location;lat;lon;timestamp;temperature;humidity
39865;DHT22;25538;48.392;9.976;2022-11-15T00:01:57;8.20;99.90
39865;DHT22;25538;48.392;9.976;2022-11-15T00:04:23;8.20;99.90
39865;DHT22;25538;48.392;9.976;2022-11-15T00:06:49;8.20;99.90
39865;DHT22;25538;48.392;9.976;2022-11-15T00:09:15;8.10;99.90
39865;DHT22;25538;48.392;9.976;2022-11-15T00:11:41;8.20;99.90
39865;DHT22;25538;48.392;9.976;2022-11-15T00:14:06;8.10;99.90
39865;DHT22;25538;48.392;9.976;2022-11-15T00:16:32;8.10;99.90
39865;DHT22;25538;48.392;9.976;2022-11-15T00:18:58;8.00;99.90
39865;DHT22;25538;48.392;9.976;2022-11-15T00:21:24;8.00;99.90
39865;DHT22;25538;48.392;9.976;2022-11-15T00:23:50;7.90;99.90
39865;DHT22;25538;48.392;9.976;2022-11-15T00:26:16;7.90;99.90
39865;DHT22;25538;48.392;9.976;2022-11-15T00:28:42;7.80;99.90
39865;DHT22;25538;48.392;9.976;2022-11-15T00:31:12;7.90;99.90
39865;DHT22;25538;48.392;9.976;2022-11-15T00:33:38;7.90;99.90
39865;DHT22;25538;48.392;9.976;2022-11-15T00:36:09;7.90;99.90
39865;DHT22;25538;48.392;9.976;2022-11-15T00:38:38;7.90;99.90
39865;DHT22;25538;48.392;9.976;2022-11-15T00:41:05;7.80;99.90
39865;DHT22;25538;48.392;9.976;2022-11-15T00:43:32;7.80;99.90
39865;DHT22;25538;48.392;9.976;2022-11-15T00:45:58;7.80;99.90
39865;DHT22;25538;48.392;9.976;2022-11-15T00:48:24;7.80;99.90
39865;DHT22;25538;48.392;9.976;2022-11-15T00:50:50;7.80;99.90
39865;DHT22;25538;48.392;9.976;2022-11-15T00:53:16;7.80;99.90
39865;DHT22;25538;48.392;9.976;2022-11-15T00:55:43;7.70;99.90
39865;DHT22;25538;48.392;9.976;2022-11-15T00:58:09;7.80;99.90
39865;DHT22;25538;48.392;9.976;2022-11-15T01:00:35;7.80;99.90
39865;DHT22;25538;48.392;9.976;2022-11-15T01:03:01;7.80;99.90
39865;DHT22;25538;48.392;9.976;2022-11-15T01:05:27;7.70;99.90
39865;DHT22;25538;48.392;9.976;2022-11-15T01:07:55;7.70;99.90
39865;DHT22;25538;48.392;9.976;2022-11-15T01:10:22;7.70;99.90
39865;DHT22;25538;48.392;9.976;2022-11-15T01:12:48;7.70;99.90
39865;DHT22;25538;48.392;9.976;2022-11-15T01:15:14;7.70;99.90
39865;DHT22;25538;48.392;9.976;2022-11-15T01:17:40;7.70;99.90
39865;DHT22;25538;48.392;9.976;2022-11-15T01:20:06;7.80;99.90
39865;DHT22;25538;48.392;9.976;2022-11-15T01:22:32;7.80;99.90
39865;DHT22;25538;48.392;9.976;2022-11-15T01:24:58;7.80;99.90
39865;DHT22;25538;48.392;9.976;2022-11-15T01:27:24;7.70;99.90
39865;DHT22;25538;48.392;9.976;2022-11-15T01:29:50;7.70;99.90
39865;DHT22;25538;48.392;9.976;2022-11-15T01:32:16;7.70;99.90
39865;DHT22;25538;48.392;9.976;2022-11-15T01:34:42;7.70;99.90
39865;DHT22;25538;48.392;9.976;2022-11-15T01:37:08;7.60;99.90
39865;DHT22;25538;48.392;9.976;2022-11-15T01:39:34;7.60;99.90
39865;DHT22;25538;48.392;9.976;2022-11-15T01:42:00;7.60;99.90
39865;DHT22;25538;48.392;9.976;2022-11-15T01:47:20;7.60;99.90
39865;DHT22;25538;48.392;9.976;2022-11-15T01:50:02;7.50;99.90
39865;DHT22;25538;48.392;9.976;2022-11-15T01:52:30;7.50;99.90
39865;DHT22;25538;48.392;9.976;2022-11-15T01:55:36;7.40;99.90
39865;DHT22;25538;48.392;9.976;2022-11-15T01:57:59;7.30;99.90
39865;DHT22;25538;48.392;9.976;2022-11-15T02:00:27;7.20;99.90
39865;DHT22;25538;48.392;9.976;2022-11-15T02:02:53;7.20;99.90
39865;DHT22;25538;48.392;9.976;2022-11-15T02:05:18;7.20;99.90
39865;DHT22;25538;48.392;9.976;2022-11-15T02:07:44;7.10;99.90
39865;DHT22;25538;48.392;9.976;2022-11-15T02:10:16;7.00;99.90
39865;DHT22;25538;48.392;9.976;2022-11-15T02:12:42;7.00;99.90
39865;DHT22;25538;48.392;9.976;2022-11-15T02:15:09;6.90;99.90
39865;DHT22;25538;48.392;9.976;2022-11-15T02:20:40;6.90;99.90
39865;DHT22;25538;48.392;9.976;2022-11-15T02:29:07;6.90;99.90
39865;DHT22;25538;48.392;9.976;2022-11-15T02:31:51;6.80;99.90
39865;DHT22;25538;48.392;9.976;2022-11-15T02:42:23;6.90;99.90
39865;DHT22;25538;48.392;9.976;2022-11-15T02:45:13;6.80;99.90
39865;DHT22;25538;48.392;9.976;2022-11-15T02:47:44;6.80;99.90
39865;DHT22;25538;48.392;9.976;2022-11-15T02:50:13;6.90;99.90
39865;DHT22;25538;48.392;9.976;2022-11-15T02:52:40;6.80;99.90
39865;DHT22;25538;48.392;9.976;2022-11-15T03:00:33;6.70;99.90
39865;DHT22;25538;48.392;9.976;2022-11-15T03:05:44;6.70;99.90
39865;DHT22;25538;48.392;9.976;2022-11-15T03:08:32;6.70;99.90
39865;DHT22;25538;48.392;9.976;2022-11-15T03:11:11;6.70;99.90
39865;DHT22;25538;48.392;9.976;2022-11-15T03:16:58;6.60;99.90
39865;DHT22;25538;48.392;9.976;2022-11-15T03:19:42;6.50;99.90
39865;DHT22;25538;48.392;9.976;2022-11-15T03:22:12;6.50;99.90
39865;DHT22;25538;48.392;9.976;2022-11-15T03:24:39;6.60;99.90
39865;DHT22;25538;48.392;9.976;2022-11-15T03:27:07;6.50;99.90
39865;DHT22;25538;48.392;9.976;2022-11-15T03:29:41;6.50;99.90
39865;DHT22;25538;48.392;9.976;2022-11-15T03:32:22;6.50;99.90
39865;DHT22;25538;48.392;9.976;2022-11-15T03:37:27;6.50;99.90
39865;DHT22;25538;48.392;9.976;2022-11-15T03:39:56;6.50;99.90
39865;DHT22;25538;48.392;9.976;2022-11-15T03:42:24;6.50;99.90
39865;DHT22;25538;48.392;9.976;2022-11-15T03:47:51;6.50;99.90
39865;DHT22;25538;48.392;9.976;2022-11-15T03:50:20;6.50;99.90
39865;DHT22;25538;48.392;9.976;2022-11-15T03:52:47;6.50;99.90
39865;DHT22;25538;48.392;9.976;2022-11-15T03:55:17;6.60;99.90
39865;DHT22;25538;48.392;9.976;2022-11-15T03:57:44;6.60;99.90
39865;DHT22;25538;48.392;9.976;2022-11-15T04:00:10;6.50;99.90
39865;DHT22;25538;48.392;9.976;2022-11-15T04:02:36;6.50;99.90
39865;DHT22;25538;48.392;9.976;2022-11-15T04:05:03;6.50;99.90
39865;DHT22;25538;48.392;9.976;2022-11-15T04:07:29;6.50;99.90
39865;DHT22;25538;48.392;9.976;2022-11-15T04:09:55;6.50;99.90
39865;DHT22;25538;48.392;9.976;2022-11-15T04:12:36;6.50;99.90
39865;DHT22;25538;48.392;9.976;2022-11-15T04:15:03;6.50;99.90
39865;DHT22;25538;48.392;9.976;2022-11-15T04:17:42;6.50;99.90
39865;DHT22;25538;48.392;9.976;2022-11-15T04:20:21;6.40;99.90
39865;DHT22;25538;48.392;9.976;2022-11-15T04:23:11;6.40;99.90
39865;DHT22;25538;48.392;9.976;2022-11-15T04:25:59;6.50;99.90
39865;DHT22;25538;48.392;9.976;2022-11-15T04:28:25;6.50;99.90
39865;DHT22;25538;48.392;9.976;2022-11-15T04:30:51;6.60;99.90
39865;DHT22;25538;48.392;9.976;2022-11-15T04:33:17;6.60;99.90
39865;DHT22;25538;48.392;9.976;2022-11-15T04:35:43;6.60;99.90
39865;DHT22;25538;48.392;9.976;2022-11-15T04:38:29;6.70;99.90
39865;DHT22;25538;48.392;9.976;2022-11-15T04:40:55;6.70;99.90
39865;DHT22;25538;48.392;9.976;2022-11-15T04:43:21;6.70;99.90
39865;DHT22;25538;48.392;9.976;2022-11-15T04:45:47;6.70;99.90
39865;DHT22;25538;48.392;9.976;2022-11-15T04:48:13;6.70;99.90
39865;DHT22;25538;48.392;9.976;2022-11-15T04:50:39;6.70;99.90
39865;DHT22;25538;48.392;9.976;2022-11-15T04:53:05;6.70;99.90
39865;DHT22;25538;48.392;9.976;2022-11-15T04:55:31;6.70;99.90
39865;DHT22;25538;48.392;9.976;2022-11-15T04:58:01;6.70;99.90
39865;DHT22;25538;48.392;9.976;2022-11-15T05:00:28;6.70;99.90
39865;DHT22;25538;48.392;9.976;2022-11-15T05:02:55;6.70;99.90
39865;DHT22;25538;48.392;9.976;2022-11-15T05:05:40;6.60;99.90
39865;DHT22;25538;48.392;9.976;2022-11-15T05:08:06;6.60;99.90
39865;DHT22;25538;48.392;9.976;2022-11-15T05:10:32;6.50;99.90
39865;DHT22;25538;48.392;9.976;2022-11-15T05:12:58;6.50;99.90
39865;DHT22;25538;48.392;9.976;2022-11-15T05:15:24;6.40;99.90
39865;DHT22;25538;48.392;9.976;2022-11-15T05:17:50;6.40;99.90
39865;DHT22;25538;48.392;9.976;2022-11-15T05:20:16;6.40;99.90
39865;DHT22;25538;48.392;9.976;2022-11-15T05:22:41;6.30;99.90
39865;DHT22;25538;48.392;9.976;2022-11-15T05:25:08;6.30;99.90
39865;DHT22;25538;48.392;9.976;2022-11-15T05:27:34;6.20;99.90
39865;DHT22;25538;48.392;9.976;2022-11-15T05:30:00;6.20;99.90
39865;DHT22;25538;48.392;9.976;2022-11-15T05:32:27;6.20;99.90
39865;DHT22;25538;48.392;9.976;2022-11-15T05:34:54;6.30;99.90
39865;DHT22;25538;48.392;9.976;2022-11-15T05:37:20;6.20;99.90
39865;DHT22;25538;48.392;9.976;2022-11-15T05:39:46;6.20;99.90
39865;DHT22;25538;48.392;9.976;2022-11-15T05:42:14;6.20;99.90
39865;DHT22;25538;48.392;9.976;2022-11-15T05:44:45;6.10;99.90
39865;DHT22;25538;48.392;9.976;2022-11-15T05:47:21;6.20;99.90
39865;DHT22;25538;48.392;9.976;2022-11-15T05:49:49;6.10;99.90
39865;DHT22;25538;48.392;9.976;2022-11-15T05:52:21;6.20;99.90
39865;DHT22;25538;48.392;9.976;2022-11-15T05:54:47;6.10;99.90
39865;DHT22;25538;48.392;9.976;2022-11-15T05:57:14;6.10;99.90
39865;DHT22;25538;48.392;9.976;2022-11-15T05:59:41;6.10;99.90
39865;DHT22;25538;48.392;9.976;2022-11-15T06:02:09;6.10;99.90
39865;DHT22;25538;48.392;9.976;2022-11-15T06:04:35;6.10;99.90
39865;DHT22;25538;48.392;9.976;2022-11-15T06:07:01;6.10;99.90
39865;DHT22;25538;48.392;9.976;2022-11-15T06:09:27;6.10;99.90
39865;DHT22;25538;48.392;9.976;2022-11-15T06:11:53;6.10;99.90
39865;DHT22;25538;48.392;9.976;2022-11-15T06:14:19;6.20;99.90
39865;DHT22;25538;48.392;9.976;2022-11-15T06:16:45;6.20;99.90
39865;DHT22;25538;48.392;9.976;2022-11-15T06:19:11;6.20;99.90
39865;DHT22;25538;48.392;9.976;2022-11-15T06:21:37;6.30;99.90
39865;DHT22;25538;48.392;9.976;2022-11-15T06:24:04;6.30;99.90
39865;DHT22;25538;48.392;9.976;2022-11-15T06:26:30;6.30;99.90
39865;DHT22;25538;48.392;9.976;2022-11-15T06:28:56;6.40;99.90
39865;DHT22;25538;48.392;9.976;2022-11-15T06:31:22;6.40;99.90
39865;DHT22;25538;48.392;9.976;2022-11-15T06:33:48;6.40;99.90
39865;DHT22;25538;48.392;9.976;2022-11-15T06:36:15;6.40;99.90
39865;DHT22;25538;48.392;9.976;2022-11-15T06:38:43;6.40;99.90
39865;DHT22;25538;48.392;9.976;2022-11-15T06:41:10;6.40;99.90
39865;DHT22;25538;48.392;9.976;2022-11-15T06:43:37;6.40;99.90
39865;DHT22;25538;48.392;9.976;2022-11-15T06:46:04;6.40;99.90
39865;DHT22;25538;48.392;9.976;2022-11-15T06:48:32;6.40;99.90
39865;DHT22;25538;48.392;9.976;2022-11-15T06:51:00;6.40;99.90
39865;DHT22;25538;48.392;9.976;2022-11-15T06:53:27;6.40;99.90
39865;DHT22;25538;48.392;9.976;2022-11-15T06:55:53;6.40;99.90
39865;DHT22;25538;48.392;9.976;2022-11-15T06:58:21;6.40;99.90
39865;DHT22;25538;48.392;9.976;2022-11-15T07:00:47;6.40;99.90
39865;DHT22;25538;48.392;9.976;2022-11-15T07:03:13;6.40;99.90
39865;DHT22;25538;48.392;9.976;2022-11-15T07:05:38;6.40;99.90
39865;DHT22;25538;48.392;9.976;2022-11-15T07:08:04;6.40;99.90
39865;DHT22;25538;48.392;9.976;2022-11-15T07:10:30;6.40;99.90
39865;DHT22;25538;48.392;9.976;2022-11-15T07:12:56;6.40;99.90
39865;DHT22;25538;48.392;9.976;2022-11-15T07:15:24;6.50;99.90
39865;DHT22;25538;48.392;9.976;2022-11-15T07:17:51;6.50;99.90
39865;DHT22;25538;48.392;9.976;2022-11-15T07:20:17;6.50;99.90
39865;DHT22;25538;48.392;9.976;2022-11-15T07:22:43;6.50;99.90
39865;DHT22;25538;48.392;9.976;2022-11-15T07:25:11;6.50;99.90
39865;DHT22;25538;48.392;9.976;2022-11-15T07:27:37;6.50;99.90
39865;DHT22;25538;48.392;9.976;2022-11-15T07:30:04;6.50;99.90
39865;DHT22;25538;48.392;9.976;2022-11-15T07:32:30;6.50;99.90
39865;DHT22;25538;48.392;9.976;2022-11-15T07:34:56;6.50;99.90
39865;DHT22;25538;48.392;9.976;2022-11-15T07:37:22;6.60;99.90
39865;DHT22;25538;48.392;9.976;2022-11-15T07:39:48;6.60;99.90
39865;DHT22;25538;48.392;9.976;2022-11-15T07:42:14;6.60;99.90
39865;DHT22;25538;48.392;9.976;2022-11-15T07:44:59;6.70;99.90
39865;DHT22;25538;48.392;9.976;2022-11-15T07:47:24;6.80;99.90
39865;DHT22;25538;48.392;9.976;2022-11-15T07:49:51;6.90;99.90
39865;DHT22;25538;48.392;9.976;2022-11-15T07:52:17;7.00;99.90
39865;DHT22;25538;48.392;9.976;2022-11-15T07:54:43;7.10;99.90
39865;DHT22;25538;48.392;9.976;2022-11-15T07:57:09;7.10;99.90
39865;DHT22;25538;48.392;9.976;2022-11-15T07:59:35;7.20;99.90
39865;DHT22;25538;48.392;9.976;2022-11-15T08:02:01;7.20;99.90
39865;DHT22;25538;48.392;9.976;2022-11-15T08:04:27;7.20;99.90
39865;DHT22;25538;48.392;9.976;2022-11-15T08:06:53;7.30;99.90
39865;DHT22;25538;48.392;9.976;2022-11-15T08:09:19;7.50;99.90
39865;DHT22;25538;48.392;9.976;2022-11-15T08:11:45;7.50;99.90
39865;DHT22;25538;48.392;9.976;2022-11-15T08:14:11;7.60;99.90
39865;DHT22;25538;48.392;9.976;2022-11-15T08:16:37;7.70;99.90
39865;DHT22;25538;48.392;9.976;2022-11-15T08:19:03;7.80;99.90
39865;DHT22;25538;48.392;9.976;2022-11-15T08:21:29;8.30;99.90
39865;DHT22;25538;48.392;9.976;2022-11-15T08:23:55;9.10;99.90
39865;DHT22;25538;48.392;9.976;2022-11-15T08:26:21;10.00;99.90
39865;DHT22;25538;48.392;9.976;2022-11-15T08:28:47;10.50;99.90
39865;DHT22;25538;48.392;9.976;2022-11-15T08:31:15;11.10;99.90
39865;DHT22;25538;48.392;9.976;2022-11-15T08:33:42;11.30;99.90
39865;DHT22;25538;48.392;9.976;2022-11-15T08:36:15;10.90;99.90
39865;DHT22;25538;48.392;9.976;2022-11-15T08:38:41;10.70;99.90
39865;DHT22;25538;48.392;9.976;2022-11-15T08:41:12;10.40;99.90
39865;DHT22;25538;48.392;9.976;2022-11-15T08:43:39;10.00;99.90
39865;DHT22;25538;48.392;9.976;2022-11-15T08:46:05;9.60;99.90
39865;DHT22;25538;48.392;9.976;2022-11-15T08:48:30;9.40;99.90
39865;DHT22;25538;48.392;9.976;2022-11-15T08:50:57;9.20;99.90
39865;DHT22;25538;48.392;9.976;2022-11-15T08:53:23;9.20;99.90
39865;DHT22;25538;48.392;9.976;2022-11-15T08:55:49;9.10;99.90
39865;DHT22;25538;48.392;9.976;2022-11-15T08:58:14;8.90;99.90
39865;DHT22;25538;48.392;9.976;2022-11-15T09:00:40;8.80;99.90
39865;DHT22;25538;48.392;9.976;2022-11-15T09:03:07;8.70;99.90
39865;DHT22;25538;48.392;9.976;2022-11-15T09:05:36;8.70;99.90
39865;DHT22;25538;48.392;9.976;2022-11-15T09:08:02;8.70;99.90
39865;DHT22;25538;48.392;9.976;2022-11-15T09:10:28;8.80;99.90
39865;DHT22;25538;48.392;9.976;2022-11-15T09:12:56;9.00;99.90
39865;DHT22;25538;48.392;9.976;2022-11-15T09:15:22;8.90;99.90
39865;DHT22;25538;48.392;9.976;2022-11-15T09:17:48;8.90;99.90
39865;DHT22;25538;48.392;9.976;2022-11-15T09:20:14;9.10;99.90
39865;DHT22;25538;48.392;9.976;2022-11-15T09:22:40;9.60;99.90
39865;DHT22;25538;48.392;9.976;2022-11-15T09:25:07;10.40;99.90
39865;DHT22;25538;48.392;9.976;2022-11-15T09:27:33;11.80;99.90
39865;DHT22;25538;48.392;9.976;2022-11-15T09:29:59;13.40;99.90
39865;DHT22;25538;48.392;9.976;2022-11-15T09:32:28;14.90;99.90
39865;DHT22;25538;48.392;9.976;2022-11-15T09:34:54;15.30;99.90
39865;DHT22;25538;48.392;9.976;2022-11-15T09:37:20;15.20;99.90
39865;DHT22;25538;48.392;9.976;2022-11-15T09:39:46;14.60;99.90
39865;DHT22;25538;48.392;9.976;2022-11-15T09:48:07;13.10;99.90
39865;DHT22;25538;48.392;9.976;2022-11-15T09:50:38;12.50;99.90
39865;DHT22;25538;48.392;9.976;2022-11-15T09:53:10;12.20;99.90
39865;DHT22;25538;48.392;9.976;2022-11-15T10:04:16;12.00;99.90
39865;DHT22;25538;48.392;9.976;2022-11-15T10:06:49;12.40;99.90
39865;DHT22;25538;48.392;9.976;2022-11-15T10:09:22;13.30;99.90
39865;DHT22;25538;48.392;9.976;2022-11-15T10:11:49;14.10;99.90
39865;DHT22;25538;48.392;9.976;2022-11-15T10:14:18;14.90;99.90
39865;DHT22;25538;48.392;9.976;2022-11-15T10:17:22;15.70;99.90
39865;DHT22;25538;48.392;9.976;2022-11-15T10:19:56;16.50;99.90
39865;DHT22;25538;48.392;9.976;2022-11-15T10:22:32;17.20;99.90
39865;DHT22;25538;48.392;9.976;2022-11-15T10:27:39;18.80;99.90
39865;DHT22;25538;48.392;9.976;2022-11-15T10:30:12;19.40;99.90
39865;DHT22;25538;48.392;9.976;2022-11-15T10:32:40;19.20;99.90
39865;DHT22;25538;48.392;9.976;2022-11-15T10:35:36;20.90;99.90
39865;DHT22;25538;48.392;9.976;2022-11-15T10:38:07;21.60;99.90
39865;DHT22;25538;48.392;9.976;2022-11-15T10:40:34;21.20;99.90
39865;DHT22;25538;48.392;9.976;2022-11-15T10:45:36;21.90;97.30
39865;DHT22;25538;48.392;9.976;2022-11-15T10:48:22;21.90;96.80
39865;DHT22;25538;48.392;9.976;2022-11-15T10:50:49;22.30;94.90
39865;DHT22;25538;48.392;9.976;2022-11-15T10:55:55;21.60;91.40
39865;DHT22;25538;48.392;9.976;2022-11-15T10:58:34;20.90;92.50
39865;DHT22;25538;48.392;9.976;2022-11-15T11:03:40;21.00;92.30
39865;DHT22;25538;48.392;9.976;2022-11-15T11:06:15;21.00;93.30
39865;DHT22;25538;48.392;9.976;2022-11-15T11:09:02;21.90;92.40
39865;DHT22;25538;48.392;9.976;2022-11-15T11:11:58;23.30;85.60
39865;DHT22;25538;48.392;9.976;2022-11-15T11:14:29;23.50;81.00
39865;DHT22;25538;48.392;9.976;2022-11-15T11:17:17;23.60;80.90
39865;DHT22;25538;48.392;9.976;2022-11-15T11:20:10;23.70;80.80
39865;DHT22;25538;48.392;9.976;2022-11-15T11:22:58;23.20;81.90
39865;DHT22;25538;48.392;9.976;2022-11-15T11:31:12;25.10;68.10
39865;DHT22;25538;48.392;9.976;2022-11-15T17:08:25;11.80;99.90
39865;DHT22;25538;48.392;9.976;2022-11-15T17:10:53;11.80;99.90
39865;DHT22;25538;48.392;9.976;2022-11-15T17:13:19;11.80;99.90
39865;DHT22;25538;48.392;9.976;2022-11-15T17:15:45;11.80;99.90
39865;DHT22;25538;48.392;9.976;2022-11-15T17:18:11;11.80;99.90
39865;DHT22;25538;48.392;9.976;2022-11-15T17:20:39;11.70;99.90
39865;DHT22;25538;48.392;9.976;2022-11-15T17:23:07;11.70;99.90
39865;DHT22;25538;48.392;9.976;2022-11-15T17:25:36;11.70;99.90
39865;DHT22;25538;48.392;9.976;2022-11-15T17:28:02;11.70;99.90
39865;DHT22;25538;48.392;9.976;2022-11-15T17:30:28;11.70;99.90
39865;DHT22;25538;48.392;9.976;2022-11-15T17:32:55;11.70;99.90
39865;DHT22;25538;48.392;9.976;2022-11-15T17:35:21;11.70;99.90
39865;DHT22;25538;48.392;9.976;2022-11-15T17:37:47;11.70;99.90
39865;DHT22;25538;48.392;9.976;2022-11-15T17:40:13;11.60;99.90
39865;DHT22;25538;48.392;9.976;2022-11-15T17:42:40;11.60;99.90
39865;DHT22;25538;48.392;9.976;2022-11-15T17:45:07;11.60;99.90
39865;DHT22;25538;48.392;9.976;2022-11-15T17:47:33;11.60;99.90
39865;DHT22;25538;48.392;9.976;2022-11-15T17:49:59;11.60;99.90
39865;DHT22;25538;48.392;9.976;2022-11-15T17:52:25;11.60;99.90
39865;DHT22;25538;48.392;9.976;2022-11-15T17:54:51;11.50;99.90
39865;DHT22;25538;48.392;9.976;2022-11-15T17:57:17;11.50;99.90
39865;DHT22;25538;48.392;9.976;2022-11-15T17:59:43;11.50;99.90
39865;DHT22;25538;48.392;9.976;2022-11-15T18:02:09;11.50;99.90
39865;DHT22;25538;48.392;9.976;2022-11-15T18:04:35;11.50;99.90
39865;DHT22;25538;48.392;9.976;2022-11-15T18:07:01;11.50;99.90
39865;DHT22;25538;48.392;9.976;2022-11-15T18:09:27;11.50;99.90
39865;DHT22;25538;48.392;9.976;2022-11-15T18:11:53;11.50;99.90
39865;DHT22;25538;48.392;9.976;2022-11-15T18:14:19;11.50;99.90
39865;DHT22;25538;48.392;9.976;2022-11-15T18:16:45;11.50;99.90
39865;DHT22;25538;48.392;9.976;2022-11-15T18:19:11;11.50;99.90
39865;DHT22;25538;48.392;9.976;2022-11-15T18:21:42;11.40;99.90
39865;DHT22;25538;48.392;9.976;2022-11-15T18:24:31;11.40;99.90
39865;DHT22;25538;48.392;9.976;2022-11-15T18:26:58;11.30;99.90
39865;DHT22;25538;48.392;9.976;2022-11-15T18:29:24;11.30;99.90
39865;DHT22;25538;48.392;9.976;2022-11-15T18:31:51;11.30;99.90
39865;DHT22;25538;48.392;9.976;2022-11-15T18:34:24;11.30;99.90
39865;DHT22;25538;48.392;9.976;2022-11-15T18:36:52;11.20;99.90
39865;DHT22;25538;48.392;9.976;2022-11-15T18:39:18;11.20;99.90
39865;DHT22;25538;48.392;9.976;2022-11-15T18:41:44;11.10;99.90
39865;DHT22;25538;48.392;9.976;2022-11-15T18:44:14;11.10;99.90
39865;DHT22;25538;48.392;9.976;2022-11-15T18:46:41;11.10;99.90
39865;DHT22;25538;48.392;9.976;2022-11-15T18:49:09;11.10;99.90
39865;DHT22;25538;48.392;9.976;2022-11-15T18:51:35;11.10;99.90
39865;DHT22;25538;48.392;9.976;2022-11-15T18:54:14;11.10;99.90
39865;DHT22;25538;48.392;9.976;2022-11-15T18:56:40;11.10;99.90
39865;DHT22;25538;48.392;9.976;2022-11-15T18:59:07;11.10;99.90
39865;DHT22;25538;48.392;9.976;2022-11-15T19:01:38;11.20;99.90
39865;DHT22;25538;48.392;9.976;2022-11-15T19:04:13;11.20;99.90
39865;DHT22;25538;48.392;9.976;2022-11-15T19:06:44;11.20;99.90
39865;DHT22;25538;48.392;9.976;2022-11-15T19:09:12;11.10;99.90
39865;DHT22;25538;48.392;9.976;2022-11-15T19:11:42;11.10;99.90
39865;DHT22;25538;48.392;9.976;2022-11-15T19:14:09;11.10;99.90
39865;DHT22;25538;48.392;9.976;2022-11-15T19:16:38;11.00;99.90
39865;DHT22;25538;48.392;9.976;2022-11-15T19:19:06;11.00;99.90
39865;DHT22;25538;48.392;9.976;2022-11-15T19:21:33;11.00;99.90
39865;DHT22;25538;48.392;9.976;2022-11-15T19:23:59;11.00;99.90
39865;DHT22;25538;48.392;9.976;2022-11-15T19:26:26;11.00;99.90
39865;DHT22;25538;48.392;9.976;2022-11-15T19:29:02;11.00;99.90
39865;DHT22;25538;48.392;9.976;2022-11-15T19:31:29;11.10;99.90
39865;DHT22;25538;48.392;9.976;2022-11-15T19:34:00;11.00;99.90
39865;DHT22;25538;48.392;9.976;2022-11-15T19:36:37;11.00;99.90
39865;DHT22;25538;48.392;9.976;2022-11-15T19:39:06;11.00;99.90
39865;DHT22;25538;48.392;9.976;2022-11-15T19:41:35;10.90;99.90
39865;DHT22;25538;48.392;9.976;2022-11-15T19:44:03;10.90;99.90
39865;DHT22;25538;48.392;9.976;2022-11-15T19:46:30;10.80;99.90
39865;DHT22;25538;48.392;9.976;2022-11-15T19:48:56;10.80;99.90
39865;DHT22;25538;48.392;9.976;2022-11-15T19:51:23;10.80;99.90
39865;DHT22;25538;48.392;9.976;2022-11-15T19:53:54;10.80;99.90
39865;DHT22;25538;48.392;9.976;2022-11-15T19:56:21;10.80;99.90
39865;DHT22;25538;48.392;9.976;2022-11-15T19:58:52;10.80;99.90
39865;DHT22;25538;48.392;9.976;2022-11-15T20:01:23;10.70;99.90
39865;DHT22;25538;48.392;9.976;2022-11-15T20:03:51;10.70;99.90
39865;DHT22;25538;48.392;9.976;2022-11-15T20:06:21;10.70;99.90
39865;DHT22;25538;48.392;9.976;2022-11-15T20:08:48;10.70;99.90
39865;DHT22;25538;48.392;9.976;2022-11-15T20:11:15;10.60;99.90
39865;DHT22;25538;48.392;9.976;2022-11-15T20:13:42;10.60;99.90
39865;DHT22;25538;48.392;9.976;2022-11-15T20:16:13;10.60;99.90
39865;DHT22;25538;48.392;9.976;2022-11-15T20:18:40;10.60;99.90
39865;DHT22;25538;48.392;9.976;2022-11-15T20:23:35;10.60;99.90
39865;DHT22;25538;48.392;9.976;2022-11-15T20:26:01;10.60;99.90
39865;DHT22;25538;48.392;9.976;2022-11-15T20:28:27;10.60;99.90
39865;DHT22;25538;48.392;9.976;2022-11-15T20:30:55;10.50;99.90
39865;DHT22;25538;48.392;9.976;2022-11-15T20:33:22;10.60;99.90
39865;DHT22;25538;48.392;9.976;2022-11-15T20:35:48;10.60;99.90
39865;DHT22;25538;48.392;9.976;2022-11-15T20:38:15;10.60;99.90
39865;DHT22;25538;48.392;9.976;2022-11-15T20:40:43;10.60;99.90
39865;DHT22;25538;48.392;9.976;2022-11-15T20:43:12;10.60;99.90
39865;DHT22;25538;48.392;9.976;2022-11-15T20:45:38;10.60;99.90
39865;DHT22;25538;48.392;9.976;2022-11-15T20:48:05;10.50;99.90
39865;DHT22;25538;48.392;9.976;2022-11-15T20:50:31;10.50;99.90
39865;DHT22;25538;48.392;9.976;2022-11-15T20:52:57;10.50;99.90
39865;DHT22;25538;48.392;9.976;2022-11-15T20:55:23;10.60;99.90
39865;DHT22;25538;48.392;9.976;2022-11-15T20:57:49;10.60;99.90
39865;DHT22;25538;48.392;9.976;2022-11-15T21:00:16;10.50;99.90
39865;DHT22;25538;48.392;9.976;2022-11-15T21:02:42;10.40;99.90
39865;DHT22;25538;48.392;9.976;2022-11-15T21:05:10;10.40;99.90
39865;DHT22;25538;48.392;9.976;2022-11-15T21:07:36;10.40;99.90
39865;DHT22;25538;48.392;9.976;2022-11-15T21:10:04;10.30;99.90
39865;DHT22;25538;48.392;9.976;2022-11-15T21:12:59;10.20;99.90
39865;DHT22;25538;48.392;9.976;2022-11-15T21:15:27;10.20;99.90
39865;DHT22;25538;48.392;9.976;2022-11-15T21:17:56;10.10;99.90
39865;DHT22;25538;48.392;9.976;2022-11-15T21:20:27;10.10;99.90
39865;DHT22;25538;48.392;9.976;2022-11-15T21:22:53;10.20;99.90
39865;DHT22;25538;48.392;9.976;2022-11-15T21:25:20;10.10;99.90
39865;DHT22;25538;48.392;9.976;2022-11-15T21:27:46;10.20;99.90
39865;DHT22;25538;48.392;9.976;2022-11-15T21:30:12;10.20;99.90
39865;DHT22;25538;48.392;9.976;2022-11-15T21:32:38;10.20;99.90
39865;DHT22;25538;48.392;9.976;2022-11-15T21:35:05;10.20;99.90
39865;DHT22;25538;48.392;9.976;2022-11-15T21:37:31;10.20;99.90
39865;DHT22;25538;48.392;9.976;2022-11-15T21:39:56;10.20;99.90
39865;DHT22;25538;48.392;9.976;2022-11-15T21:42:22;10.20;99.90
39865;DHT22;25538;48.392;9.976;2022-11-15T21:44:48;10.10;99.90
39865;DHT22;25538;48.392;9.976;2022-11-15T21:47:14;10.20;99.90
39865;DHT22;25538;48.392;9.976;2022-11-15T21:49:40;10.20;99.90
39865;DHT22;25538;48.392;9.976;2022-11-15T21:52:06;10.20;99.90
39865;DHT22;25538;48.392;9.976;2022-11-15T21:54:32;10.20;99.90
39865;DHT22;25538;48.392;9.976;2022-11-15T21:56:58;10.20;99.90
39865;DHT22;25538;48.392;9.976;2022-11-15T21:59:24;10.20;99.90
39865;DHT22;25538;48.392;9.976;2022-11-15T22:01:50;10.20;99.90
39865;DHT22;25538;48.392;9.976;2022-11-15T22:04:35;10.20;99.90
39865;DHT22;25538;48.392;9.976;2022-11-15T22:07:00;10.20;99.90
39865;DHT22;25538;48.392;9.976;2022-11-15T22:09:26;10.20;99.90
39865;DHT22;25538;48.392;9.976;2022-11-15T22:11:52;10.20;99.90
39865;DHT22;25538;48.392;9.976;2022-11-15T22:14:18;10.20;99.90
39865;DHT22;25538;48.392;9.976;2022-11-15T22:16:44;10.20;99.90
39865;DHT22;25538;48.392;9.976;2022-11-15T22:19:10;10.20;99.90
39865;DHT22;25538;48.392;9.976;2022-11-15T22:21:36;10.20;99.90
39865;DHT22;25538;48.392;9.976;2022-11-15T22:24:04;10.10;99.90
39865;DHT22;25538;48.392;9.976;2022-11-15T22:26:30;10.10;99.90
39865;DHT22;25538;48.392;9.976;2022-11-15T22:28:56;10.00;99.90
39865;DHT22;25538;48.392;9.976;2022-11-15T22:31:22;10.10;99.90
39865;DHT22;25538;48.392;9.976;2022-11-15T22:33:48;10.00;99.90